sensor_id;sensor_type;location;lat;lon;timestamp;P1;durP1;ratioP1;P2;durP2;ratioP2
21927;SDS011;11128;51.096;17.190;2023-06-14T00:04:28;6.20;;;4.10;;
21927;SDS011;11128;51.096;17.190;2023-06-14T00:09:30;5.40;;;3.60;;
21927;SDS011;11128;51.096;17.190;2023-06-14T00:14:31;6.10;;;3.78;;
21927;SDS011;11128;51.096;17.190;2023-06-14T00:19:32;5.40;;;3.42;;
21927;SDS011;11128;51.096;17.190;2023-06-14T00:24:39;6.15;;;3.70;;
21927;SDS011;11128;51.096;17.190;2023-06-14T00:29:40;6.55;;;3.78;;
21927;SDS011;11128;51.096;17.190;2023-06-14T00:34:42;6.25;;;3.60;;
21927;SDS011;11128;51.096;17.190;2023-06-14T00:39:43;6.85;;;3.60;;
21927;SDS011;11128;51.096;17.190;2023-06-14T00:44:44;6.93;;;3.50;;
21927;SDS011;11128;51.096;17.190;2023-06-14T00:49:46;5.40;;;3.47;;
21927;SDS011;11128;51.096;17.190;2023-06-14T00:54:49;6.93;;;3.70;;
21927;SDS011;11128;51.096;17.190;2023-06-14T00:59:50;6.40;;;4.03;;
21927;SDS011;11128;51.096;17.190;2023-06-14T01:04:51;6.22;;;3.90;;
21927;SDS011;11128;51.096;17.190;2023-06-14T01:10:08;6.00;;;4.05;;
21927;SDS011;11128;51.096;17.190;2023-06-14T01:15:21;5.25;;;3.42;;
21927;SDS011;11128;51.096;17.190;2023-06-14T01:20:27;5.20;;;3.60;;
21927;SDS011;11128;51.096;17.190;2023-06-14T01:25:33;6.28;;;4.05;;
21927;SDS011;11128;51.096;17.190;2023-06-14T01:30:40;5.38;;;3.83;;
21927;SDS011;11128;51.096;17.190;2023-06-14T01:35:49;7.30;;;3.90;;
21927;SDS011;11128;51.096;17.190;2023-06-14T01:40:53;5.82;;;3.47;;
21927;SDS011;11128;51.096;17.190;2023-06-14T01:45:57;7.60;;;3.72;;
21927;SDS011;11128;51.096;17.190;2023-06-14T01:50:59;10.52;;;4.68;;
21927;SDS011;11128;51.096;17.190;2023-06-14T01:56:01;6.40;;;4.25;;
21927;SDS011;11128;51.096;17.190;2023-06-14T02:01:03;7.28;;;3.80;;
21927;SDS011;11128;51.096;17.190;2023-06-14T02:06:04;6.25;;;3.95;;
21927;SDS011;11128;51.096;17.190;2023-06-14T02:11:06;9.25;;;4.38;;
21927;SDS011;11128;51.096;17.190;2023-06-14T02:16:07;7.47;;;4.13;;
21927;SDS011;11128;51.096;17.190;2023-06-14T02:21:08;8.27;;;4.82;;
21927;SDS011;11128;51.096;17.190;2023-06-14T02:26:10;11.23;;;4.95;;
21927;SDS011;11128;51.096;17.190;2023-06-14T02:31:11;7.43;;;4.53;;
21927;SDS011;11128;51.096;17.190;2023-06-14T02:36:12;7.72;;;4.70;;
21927;SDS011;11128;51.096;17.190;2023-06-14T02:41:14;9.82;;;5.10;;
21927;SDS011;11128;51.096;17.190;2023-06-14T02:46:15;8.07;;;4.20;;
21927;SDS011;11128;51.096;17.190;2023-06-14T02:51:16;7.63;;;4.32;;
21927;SDS011;11128;51.096;17.190;2023-06-14T02:56:18;10.93;;;4.90;;
21927;SDS011;11128;51.096;17.190;2023-06-14T03:01:20;11.15;;;5.15;;
21927;SDS011;11128;51.096;17.190;2023-06-14T03:06:22;7.25;;;4.88;;
21927;SDS011;11128;51.096;17.190;2023-06-14T03:11:26;11.35;;;5.15;;
21927;SDS011;11128;51.096;17.190;2023-06-14T03:16:27;9.25;;;4.70;;
21927;SDS011;11128;51.096;17.190;2023-06-14T03:21:30;11.35;;;5.03;;
21927;SDS011;11128;51.096;17.190;2023-06-14T03:26:31;8.77;;;5.07;;
21927;SDS011;11128;51.096;17.190;2023-06-14T03:31:34;11.25;;;5.75;;
21927;SDS011;11128;51.096;17.190;2023-06-14T03:36:36;8.38;;;5.45;;
21927;SDS011;11128;51.096;17.190;2023-06-14T03:41:37;6.97;;;4.32;;
21927;SDS011;11128;51.096;17.190;2023-06-14T03:46:38;11.38;;;5.90;;
21927;SDS011;11128;51.096;17.190;2023-06-14T03:51:40;7.13;;;4.32;;
21927;SDS011;11128;51.096;17.190;2023-06-14T03:56:41;6.47;;;5.05;;
21927;SDS011;11128;51.096;17.190;2023-06-14T04:01:43;9.60;;;5.80;;
21927;SDS011;11128;51.096;17.190;2023-06-14T04:06:45;7.00;;;5.05;;
21927;SDS011;11128;51.096;17.190;2023-06-14T04:11:49;9.18;;;5.38;;
21927;SDS011;11128;51.096;17.190;2023-06-14T04:16:50;8.20;;;5.15;;
21927;SDS011;11128;51.096;17.190;2023-06-14T04:21:51;9.23;;;5.45;;
21927;SDS011;11128;51.096;17.190;2023-06-14T04:26:53;8.63;;;5.47;;
21927;SDS011;11128;51.096;17.190;2023-06-14T04:31:55;10.52;;;5.20;;
21927;SDS011;11128;51.096;17.190;2023-06-14T04:36:59;8.65;;;5.15;;
21927;SDS011;11128;51.096;17.190;2023-06-14T04:42:01;8.73;;;5.47;;
21927;SDS011;11128;51.096;17.190;2023-06-14T04:47:04;8.75;;;5.28;;
21927;SDS011;11128;51.096;17.190;2023-06-14T04:52:07;7.93;;;5.43;;
21927;SDS011;11128;51.096;17.190;2023-06-14T04:57:10;13.52;;;6.10;;
21927;SDS011;11128;51.096;17.190;2023-06-14T05:02:17;12.60;;;6.43;;
21927;SDS011;11128;51.096;17.190;2023-06-14T05:07:19;10.32;;;6.20;;
21927;SDS011;11128;51.096;17.190;2023-06-14T05:12:20;13.32;;;7.15;;
21927;SDS011;11128;51.096;17.190;2023-06-14T05:17:22;12.25;;;7.40;;
21927;SDS011;11128;51.096;17.190;2023-06-14T05:22:23;13.32;;;7.32;;
21927;SDS011;11128;51.096;17.190;2023-06-14T05:27:25;12.50;;;7.35;;
21927;SDS011;11128;51.096;17.190;2023-06-14T05:32:26;15.35;;;8.15;;
21927;SDS011;11128;51.096;17.190;2023-06-14T05:37:28;13.75;;;8.27;;
21927;SDS011;11128;51.096;17.190;2023-06-14T05:42:29;15.95;;;9.38;;
21927;SDS011;11128;51.096;17.190;2023-06-14T05:47:30;16.67;;;9.18;;
21927;SDS011;11128;51.096;17.190;2023-06-14T05:52:31;17.40;;;9.05;;
21927;SDS011;11128;51.096;17.190;2023-06-14T05:57:33;19.38;;;11.20;;
21927;SDS011;11128;51.096;17.190;2023-06-14T06:02:34;19.85;;;10.68;;
21927;SDS011;11128;51.096;17.190;2023-06-14T06:07:36;17.45;;;9.23;;
21927;SDS011;11128;51.096;17.190;2023-06-14T06:12:38;16.80;;;9.43;;
21927;SDS011;11128;51.096;17.190;2023-06-14T06:17:41;19.48;;;10.07;;
21927;SDS011;11128;51.096;17.190;2023-06-14T06:22:43;19.98;;;10.60;;
21927;SDS011;11128;51.096;17.190;2023-06-14T06:27:45;18.98;;;9.68;;
21927;SDS011;11128;51.096;17.190;2023-06-14T06:32:46;18.75;;;10.02;;
21927;SDS011;11128;51.096;17.190;2023-06-14T06:37:48;21.27;;;10.38;;
21927;SDS011;11128;51.096;17.190;2023-06-14T06:42:49;17.60;;;9.35;;
21927;SDS011;11128;51.096;17.190;2023-06-14T06:47:50;19.23;;;9.60;;
21927;SDS011;11128;51.096;17.190;2023-06-14T06:52:52;18.67;;;9.63;;
21927;SDS011;11128;51.096;17.190;2023-06-14T06:57:54;16.17;;;9.32;;
21927;SDS011;11128;51.096;17.190;2023-06-14T07:02:55;17.38;;;9.93;;
21927;SDS011;11128;51.096;17.190;2023-06-14T07:07:58;17.95;;;9.77;;
21927;SDS011;11128;51.096;17.190;2023-06-14T07:12:59;14.15;;;8.73;;
21927;SDS011;11128;51.096;17.190;2023-06-14T07:18:01;15.82;;;9.30;;
21927;SDS011;11128;51.096;17.190;2023-06-14T07:23:02;18.10;;;9.43;;
21927;SDS011;11128;51.096;17.190;2023-06-14T07:28:03;14.63;;;8.38;;
21927;SDS011;11128;51.096;17.190;2023-06-14T07:33:05;17.05;;;9.18;;
21927;SDS011;11128;51.096;17.190;2023-06-14T07:38:07;16.65;;;9.35;;
21927;SDS011;11128;51.096;17.190;2023-06-14T07:43:08;15.02;;;9.05;;
21927;SDS011;11128;51.096;17.190;2023-06-14T07:48:10;14.07;;;8.88;;
21927;SDS011;11128;51.096;17.190;2023-06-14T07:53:11;16.65;;;8.10;;
21927;SDS011;11128;51.096;17.190;2023-06-14T07:58:12;12.63;;;7.80;;
21927;SDS011;11128;51.096;17.190;2023-06-14T08:03:14;13.10;;;7.53;;
21927;SDS011;11128;51.096;17.190;2023-06-14T08:08:16;14.18;;;8.20;;
21927;SDS011;11128;51.096;17.190;2023-06-14T08:13:17;10.20;;;6.38;;
21927;SDS011;11128;51.096;17.190;2023-06-14T08:18:19;12.95;;;6.22;;
21927;SDS011;11128;51.096;17.190;2023-06-14T08:23:20;14.63;;;7.85;;
21927;SDS011;11128;51.096;17.190;2023-06-14T08:28:23;14.30;;;7.68;;
21927;SDS011;11128;51.096;17.190;2023-06-14T08:33:25;11.52;;;7.22;;
21927;SDS011;11128;51.096;17.190;2023-06-14T08:38:26;11.77;;;7.07;;
21927;SDS011;11128;51.096;17.190;2023-06-14T08:43:28;9.80;;;6.40;;
21927;SDS011;11128;51.096;17.190;2023-06-14T08:48:30;8.70;;;5.28;;
21927;SDS011;11128;51.096;17.190;2023-06-14T08:53:34;9.90;;;5.18;;
21927;SDS011;11128;51.096;17.190;2023-06-14T08:58:43;11.73;;;5.75;;
21927;SDS011;11128;51.096;17.190;2023-06-14T09:03:45;8.40;;;5.68;;
21927;SDS011;11128;51.096;17.190;2023-06-14T09:08:49;8.05;;;4.45;;
21927;SDS011;11128;51.096;17.190;2023-06-14T09:13:50;7.07;;;3.60;;
21927;SDS011;11128;51.096;17.190;2023-06-14T09:18:53;4.75;;;3.13;;
21927;SDS011;11128;51.096;17.190;2023-06-14T09:23:55;4.25;;;3.13;;
21927;SDS011;11128;51.096;17.190;2023-06-14T09:28:56;4.05;;;3.08;;
21927;SDS011;11128;51.096;17.190;2023-06-14T09:33:58;4.18;;;2.80;;
21927;SDS011;11128;51.096;17.190;2023-06-14T09:39:03;5.55;;;2.67;;
21927;SDS011;11128;51.096;17.190;2023-06-14T09:44:07;4.13;;;2.58;;
21927;SDS011;11128;51.096;17.190;2023-06-14T09:49:10;4.10;;;2.95;;
21927;SDS011;11128;51.096;17.190;2023-06-14T09:54:22;5.22;;;3.00;;
21927;SDS011;11128;51.096;17.190;2023-06-14T09:59:26;6.85;;;2.95;;
21927;SDS011;11128;51.096;17.190;2023-06-14T10:04:32;4.82;;;3.38;;
21927;SDS011;11128;51.096;17.190;2023-06-14T10:09:36;5.05;;;2.85;;
21927;SDS011;11128;51.096;17.190;2023-06-14T10:14:37;4.72;;;3.00;;
21927;SDS011;11128;51.096;17.190;2023-06-14T10:25:07;5.18;;;2.38;;
21927;SDS011;11128;51.096;17.190;2023-06-14T10:30:26;3.80;;;2.90;;
21927;SDS011;11128;51.096;17.190;2023-06-14T10:35:27;5.45;;;3.15;;
21927;SDS011;11128;51.096;17.190;2023-06-14T10:40:31;4.35;;;2.55;;
21927;SDS011;11128;51.096;17.190;2023-06-14T10:45:34;3.53;;;2.33;;
21927;SDS011;11128;51.096;17.190;2023-06-14T10:50:35;5.25;;;2.90;;
21927;SDS011;11128;51.096;17.190;2023-06-14T10:55:36;5.85;;;2.30;;
21927;SDS011;11128;51.096;17.190;2023-06-14T11:00:38;3.40;;;2.55;;
21927;SDS011;11128;51.096;17.190;2023-06-14T11:10:48;4.45;;;2.50;;
21927;SDS011;11128;51.096;17.190;2023-06-14T11:15:50;3.83;;;2.85;;
21927;SDS011;11128;51.096;17.190;2023-06-14T11:20:53;8.05;;;2.80;;
21927;SDS011;11128;51.096;17.190;2023-06-14T11:25:55;2.70;;;2.20;;
21927;SDS011;11128;51.096;17.190;2023-06-14T11:30:59;5.60;;;3.13;;
21927;SDS011;11128;51.096;17.190;2023-06-14T11:36:02;3.03;;;2.25;;
21927;SDS011;11128;51.096;17.190;2023-06-14T11:41:06;3.30;;;2.38;;
21927;SDS011;11128;51.096;17.190;2023-06-14T11:46:17;5.10;;;2.50;;
21927;SDS011;11128;51.096;17.190;2023-06-14T11:51:22;3.85;;;2.33;;
21927;SDS011;11128;51.096;17.190;2023-06-14T11:56:24;3.13;;;2.38;;
21927;SDS011;11128;51.096;17.190;2023-06-14T12:01:26;4.60;;;2.30;;
21927;SDS011;11128;51.096;17.190;2023-06-14T12:06:28;4.00;;;2.55;;
21927;SDS011;11128;51.096;17.190;2023-06-14T12:11:36;4.18;;;2.40;;
21927;SDS011;11128;51.096;17.190;2023-06-14T12:16:38;5.00;;;2.55;;
21927;SDS011;11128;51.096;17.190;2023-06-14T12:21:40;3.72;;;2.30;;
21927;SDS011;11128;51.096;17.190;2023-06-14T12:26:43;4.40;;;2.92;;
21927;SDS011;11128;51.096;17.190;2023-06-14T12:31:44;4.97;;;2.75;;
21927;SDS011;11128;51.096;17.190;2023-06-14T12:36:45;4.25;;;2.53;;
21927;SDS011;11128;51.096;17.190;2023-06-14T12:41:47;3.35;;;2.70;;
21927;SDS011;11128;51.096;17.190;2023-06-14T12:46:49;4.78;;;2.67;;
21927;SDS011;11128;51.096;17.190;2023-06-14T12:51:52;4.15;;;2.80;;
21927;SDS011;11128;51.096;17.190;2023-06-14T12:56:53;5.22;;;3.03;;
21927;SDS011;11128;51.096;17.190;2023-06-14T13:01:55;3.30;;;2.42;;
21927;SDS011;11128;51.096;17.190;2023-06-14T13:06:57;3.88;;;3.10;;
21927;SDS011;11128;51.096;17.190;2023-06-14T13:11:58;3.83;;;2.78;;
21927;SDS011;11128;51.096;17.190;2023-06-14T13:16:59;4.25;;;2.72;;
21927;SDS011;11128;51.096;17.190;2023-06-14T13:22:00;4.15;;;2.72;;
21927;SDS011;11128;51.096;17.190;2023-06-14T13:27:02;5.93;;;2.88;;
21927;SDS011;11128;51.096;17.190;2023-06-14T13:32:04;4.80;;;2.90;;
21927;SDS011;11128;51.096;17.190;2023-06-14T13:37:06;3.70;;;2.58;;
21927;SDS011;11128;51.096;17.190;2023-06-14T13:42:07;7.80;;;2.55;;
21927;SDS011;11128;51.096;17.190;2023-06-14T13:47:08;3.97;;;2.60;;
21927;SDS011;11128;51.096;17.190;2023-06-14T13:52:10;3.13;;;2.30;;
21927;SDS011;11128;51.096;17.190;2023-06-14T13:57:12;3.35;;;2.08;;
21927;SDS011;11128;51.096;17.190;2023-06-14T14:02:13;4.85;;;1.90;;
21927;SDS011;11128;51.096;17.190;2023-06-14T14:07:15;4.85;;;2.60;;
21927;SDS011;11128;51.096;17.190;2023-06-14T14:12:16;2.40;;;1.88;;
21927;SDS011;11128;51.096;17.190;2023-06-14T14:17:18;3.95;;;2.50;;
21927;SDS011;11128;51.096;17.190;2023-06-14T14:22:20;4.38;;;2.80;;
21927;SDS011;11128;51.096;17.190;2023-06-14T14:27:21;4.10;;;2.70;;
21927;SDS011;11128;51.096;17.190;2023-06-14T14:32:23;6.38;;;2.58;;
21927;SDS011;11128;51.096;17.190;2023-06-14T14:37:24;6.63;;;3.63;;
21927;SDS011;11128;51.096;17.190;2023-06-14T14:42:25;5.47;;;4.22;;
21927;SDS011;11128;51.096;17.190;2023-06-14T14:47:27;5.05;;;3.55;;
21927;SDS011;11128;51.096;17.190;2023-06-14T14:52:28;4.10;;;3.08;;
21927;SDS011;11128;51.096;17.190;2023-06-14T14:57:30;4.43;;;2.90;;
21927;SDS011;11128;51.096;17.190;2023-06-14T15:02:31;5.22;;;3.65;;
21927;SDS011;11128;51.096;17.190;2023-06-14T15:07:33;4.65;;;3.85;;
21927;SDS011;11128;51.096;17.190;2023-06-14T15:12:34;5.93;;;3.95;;
21927;SDS011;11128;51.096;17.190;2023-06-14T15:17:36;8.88;;;4.07;;
21927;SDS011;11128;51.096;17.190;2023-06-14T15:22:37;6.18;;;4.03;;
21927;SDS011;11128;51.096;17.190;2023-06-14T15:27:38;8.68;;;4.60;;
21927;SDS011;11128;51.096;17.190;2023-06-14T15:32:39;7.07;;;4.10;;
21927;SDS011;11128;51.096;17.190;2023-06-14T15:37:41;8.35;;;4.47;;
21927;SDS011;11128;51.096;17.190;2023-06-14T15:42:42;5.68;;;3.65;;
21927;SDS011;11128;51.096;17.190;2023-06-14T15:47:43;7.70;;;4.10;;
21927;SDS011;11128;51.096;17.190;2023-06-14T15:52:45;4.63;;;3.33;;
21927;SDS011;11128;51.096;17.190;2023-06-14T15:57:47;7.90;;;4.10;;
21927;SDS011;11128;51.096;17.190;2023-06-14T16:02:48;5.22;;;3.47;;
21927;SDS011;11128;51.096;17.190;2023-06-14T16:07:50;6.63;;;3.53;;
21927;SDS011;11128;51.096;17.190;2023-06-14T16:12:53;8.85;;;3.80;;
21927;SDS011;11128;51.096;17.190;2023-06-14T16:17:54;6.25;;;3.85;;
21927;SDS011;11128;51.096;17.190;2023-06-14T16:22:56;5.13;;;3.40;;
21927;SDS011;11128;51.096;17.190;2023-06-14T16:27:57;5.55;;;2.88;;
21927;SDS011;11128;51.096;17.190;2023-06-14T16:32:58;5.63;;;3.00;;
21927;SDS011;11128;51.096;17.190;2023-06-14T16:38:00;3.13;;;2.50;;
21927;SDS011;11128;51.096;17.190;2023-06-14T16:43:01;3.63;;;2.40;;
21927;SDS011;11128;51.096;17.190;2023-06-14T16:48:02;5.05;;;3.20;;
21927;SDS011;11128;51.096;17.190;2023-06-14T16:53:05;3.05;;;2.50;;
21927;SDS011;11128;51.096;17.190;2023-06-14T16:58:07;3.90;;;2.53;;
21927;SDS011;11128;51.096;17.190;2023-06-14T17:03:08;6.57;;;4.20;;
21927;SDS011;11128;51.096;17.190;2023-06-14T17:08:10;7.55;;;3.58;;
21927;SDS011;11128;51.096;17.190;2023-06-14T17:13:11;9.32;;;3.17;;
21927;SDS011;11128;51.096;17.190;2023-06-14T17:18:12;8.38;;;4.00;;
21927;SDS011;11128;51.096;17.190;2023-06-14T17:23:14;7.47;;;4.20;;
21927;SDS011;11128;51.096;17.190;2023-06-14T17:28:15;5.00;;;3.17;;
21927;SDS011;11128;51.096;17.190;2023-06-14T17:33:17;6.00;;;2.88;;
21927;SDS011;11128;51.096;17.190;2023-06-14T17:38:18;4.30;;;2.95;;
21927;SDS011;11128;51.096;17.190;2023-06-14T17:43:19;4.38;;;2.92;;
21927;SDS011;11128;51.096;17.190;2023-06-14T17:48:22;4.65;;;2.88;;
21927;SDS011;11128;51.096;17.190;2023-06-14T17:53:23;3.88;;;2.92;;
21927;SDS011;11128;51.096;17.190;2023-06-14T17:58:24;4.90;;;2.97;;
21927;SDS011;11128;51.096;17.190;2023-06-14T18:03:26;4.93;;;3.03;;
21927;SDS011;11128;51.096;17.190;2023-06-14T18:08:27;3.15;;;2.70;;
21927;SDS011;11128;51.096;17.190;2023-06-14T18:13:29;4.50;;;2.97;;
21927;SDS011;11128;51.096;17.190;2023-06-14T18:18:30;5.78;;;3.22;;
21927;SDS011;11128;51.096;17.190;2023-06-14T18:23:32;4.57;;;3.22;;
21927;SDS011;11128;51.096;17.190;2023-06-14T18:28:33;4.10;;;3.08;;
21927;SDS011;11128;51.096;17.190;2023-06-14T18:33:36;4.35;;;3.17;;
21927;SDS011;11128;51.096;17.190;2023-06-14T18:38:38;6.18;;;3.90;;
21927;SDS011;11128;51.096;17.190;2023-06-14T18:43:39;4.82;;;3.55;;
21927;SDS011;11128;51.096;17.190;2023-06-14T18:48:40;9.15;;;5.40;;
21927;SDS011;11128;51.096;17.190;2023-06-14T18:53:44;10.27;;;6.00;;
21927;SDS011;11128;51.096;17.190;2023-06-14T18:58:45;10.70;;;5.70;;
21927;SDS011;11128;51.096;17.190;2023-06-14T19:03:47;10.63;;;5.40;;
21927;SDS011;11128;51.096;17.190;2023-06-14T19:08:48;5.65;;;4.05;;
21927;SDS011;11128;51.096;17.190;2023-06-14T19:13:51;3.95;;;3.00;;
21927;SDS011;11128;51.096;17.190;2023-06-14T19:18:53;6.00;;;3.20;;
21927;SDS011;11128;51.096;17.190;2023-06-14T19:23:54;4.53;;;3.42;;
21927;SDS011;11128;51.096;17.190;2023-06-14T19:28:56;5.72;;;3.47;;
21927;SDS011;11128;51.096;17.190;2023-06-14T19:33:58;5.78;;;3.58;;
21927;SDS011;11128;51.096;17.190;2023-06-14T19:38:59;6.60;;;4.00;;
21927;SDS011;11128;51.096;17.190;2023-06-14T19:44:01;5.93;;;3.97;;
21927;SDS011;11128;51.096;17.190;2023-06-14T19:49:02;9.65;;;5.32;;
21927;SDS011;11128;51.096;17.190;2023-06-14T19:54:03;12.88;;;6.65;;
21927;SDS011;11128;51.096;17.190;2023-06-14T19:59:05;16.83;;;6.57;;
21927;SDS011;11128;51.096;17.190;2023-06-14T20:04:07;9.57;;;6.32;;
21927;SDS011;11128;51.096;17.190;2023-06-14T20:09:08;9.18;;;5.72;;
21927;SDS011;11128;51.096;17.190;2023-06-14T20:14:14;11.35;;;4.93;;
21927;SDS011;11128;51.096;17.190;2023-06-14T20:19:15;9.63;;;4.78;;
21927;SDS011;11128;51.096;17.190;2023-06-14T20:24:16;7.63;;;5.15;;
21927;SDS011;11128;51.096;17.190;2023-06-14T20:29:18;9.55;;;5.35;;
21927;SDS011;11128;51.096;17.190;2023-06-14T20:34:19;10.50;;;6.22;;
21927;SDS011;11128;51.096;17.190;2023-06-14T20:39:20;9.70;;;5.90;;
21927;SDS011;11128;51.096;17.190;2023-06-14T20:44:21;10.20;;;5.55;;
21927;SDS011;11128;51.096;17.190;2023-06-14T20:49:25;8.80;;;5.20;;
21927;SDS011;11128;51.096;17.190;2023-06-14T20:54:29;12.00;;;5.75;;
21927;SDS011;11128;51.096;17.190;2023-06-14T20:59:32;6.63;;;4.40;;
21927;SDS011;11128;51.096;17.190;2023-06-14T21:04:34;6.57;;;4.40;;
21927;SDS011;11128;51.096;17.190;2023-06-14T21:09:35;7.32;;;4.80;;
21927;SDS011;11128;51.096;17.190;2023-06-14T21:14:36;10.20;;;5.95;;
21927;SDS011;11128;51.096;17.190;2023-06-14T21:19:38;8.07;;;4.80;;
21927;SDS011;11128;51.096;17.190;2023-06-14T21:24:42;9.10;;;5.03;;
21927;SDS011;11128;51.096;17.190;2023-06-14T21:29:43;10.77;;;5.55;;
21927;SDS011;11128;51.096;17.190;2023-06-14T21:34:44;8.93;;;5.30;;
21927;SDS011;11128;51.096;17.190;2023-06-14T21:39:46;8.43;;;5.13;;
21927;SDS011;11128;51.096;17.190;2023-06-14T21:44:47;10.15;;;4.72;;
21927;SDS011;11128;51.096;17.190;2023-06-14T21:49:51;8.55;;;5.07;;
21927;SDS011;11128;51.096;17.190;2023-06-14T21:54:55;8.18;;;4.78;;
21927;SDS011;11128;51.096;17.190;2023-06-14T21:59:57;8.35;;;4.75;;
21927;SDS011;11128;51.096;17.190;2023-06-14T22:04:58;7.18;;;4.38;;
21927;SDS011;11128;51.096;17.190;2023-06-14T22:10:00;7.95;;;5.38;;
21927;SDS011;11128;51.096;17.190;2023-06-14T22:15:01;7.43;;;4.47;;
21927;SDS011;11128;51.096;17.190;2023-06-14T22:20:05;8.35;;;5.22;;
21927;SDS011;11128;51.096;17.190;2023-06-14T22:25:10;9.30;;;5.10;;
21927;SDS011;11128;51.096;17.190;2023-06-14T22:30:14;10.32;;;6.07;;
21927;SDS011;11128;51.096;17.190;2023-06-14T22:35:16;8.95;;;5.95;;
21927;SDS011;11128;51.096;17.190;2023-06-14T22:40:17;11.70;;;6.72;;
21927;SDS011;11128;51.096;17.190;2023-06-14T22:45:18;10.98;;;5.28;;
21927;SDS011;11128;51.096;17.190;2023-06-14T22:50:23;10.63;;;5.93;;
21927;SDS011;11128;51.096;17.190;2023-06-14T22:55:25;12.65;;;6.90;;
21927;SDS011;11128;51.096;17.190;2023-06-14T23:00:26;10.38;;;5.95;;
21927;SDS011;11128;51.096;17.190;2023-06-14T23:05:28;10.45;;;6.20;;
21927;SDS011;11128;51.096;17.190;2023-06-14T23:10:29;8.93;;;5.32;;
21927;SDS011;11128;51.096;17.190;2023-06-14T23:15:30;8.55;;;5.47;;
21927;SDS011;11128;51.096;17.190;2023-06-14T23:20:32;7.28;;;5.35;;
21927;SDS011;11128;51.096;17.190;2023-06-14T23:25:33;8.93;;;5.65;;
21927;SDS011;11128;51.096;17.190;2023-06-14T23:30:35;7.35;;;5.55;;
21927;SDS011;11128;51.096;17.190;2023-06-14T23:35:37;7.70;;;5.10;;
21927;SDS011;11128;51.096;17.190;2023-06-14T23:40:41;9.65;;;5.88;;
21927;SDS011;11128;51.096;17.190;2023-06-14T23:45:42;9.55;;;5.72;;
21927;SDS011;11128;51.096;17.190;2023-06-14T23:50:46;10.40;;;5.38;;
21927;SDS011;11128;51.096;17.190;2023-06-14T23:55:47;6.90;;;5.05;;
